Terminal Aerodrome Forecast
Issued by NWS Twin Cities, MN

Home | Current Version | Previous Version | Text Only | Print | Product List | Glossary Off
Versions: 1 2 3 4 5 6 7 8 9 10 11 12 13 14 15 16 17 18 19 20 21 22 23 24 25 26

000
FTUS43 KMPX 272046 AAA
TAFMSP
TAF AMD
KMSP 272046Z 2721/2824 24008KT P6SM FEW080
     FM280200 VRB03KT P6SM SKC
     FM281000 17005KT P6SM SCT080 BKN250
     FM281600 18014G25KT P6SM BKN120=

USA.gov is the U.S. government's official web portal to all federal, state and local government web resources and services.